createdAt,value
2024-01-16T00:00:54.442Z,2.08
2024-01-16T00:03:41.777Z,2.17
2024-01-16T00:06:09.455Z,2.15
2024-01-16T00:08:36.741Z,1.65
2024-01-16T00:11:04.749Z,3.05
2024-01-16T00:13:34.171Z,1.42
2024-01-16T00:16:05.098Z,2.03
2024-01-16T00:18:32.902Z,1.15
2024-01-16T00:21:03.767Z,2.58
2024-01-16T00:23:33.841Z,2.92
2024-01-16T00:26:01.701Z,2.05
2024-01-16T00:28:28.954Z,4.10
2024-01-16T00:30:56.482Z,2.20
2024-01-16T00:33:23.743Z,1.63
2024-01-16T00:35:51.454Z,1.73
2024-01-16T00:38:18.706Z,3.88
2024-01-16T00:40:47.367Z,2.33
2024-01-16T00:43:14.623Z,2.40
2024-01-16T00:45:42.094Z,1.95
2024-01-16T00:48:11.706Z,1.58
2024-01-16T00:50:39.901Z,2.03
2024-01-16T00:53:07.202Z,2.08
2024-01-16T00:55:34.767Z,2.95
2024-01-16T00:58:02.098Z,1.95
2024-01-16T01:00:32.084Z,1.90
2024-01-16T01:03:02.251Z,1.23
2024-01-16T01:05:30.040Z,2.50
2024-01-16T01:07:58.900Z,3.53
2024-01-16T01:10:26.400Z,1.95
2024-01-16T01:12:56.583Z,4.30
2024-01-16T01:15:24.077Z,0.80
2024-01-16T01:17:52.499Z,2.58
2024-01-16T01:20:21.049Z,2.05
2024-01-16T01:22:48.319Z,2.00
2024-01-16T01:25:16.110Z,1.30
2024-01-16T01:27:43.301Z,4.82
2024-01-16T01:30:14.344Z,0.80
2024-01-16T01:32:41.866Z,3.15
2024-01-16T01:35:09.849Z,1.48
2024-01-16T01:37:37.166Z,2.22
2024-01-16T01:40:05.016Z,1.52
2024-01-16T01:42:32.241Z,2.45
2024-01-16T01:44:59.768Z,1.20
2024-01-16T01:47:27.562Z,2.38
2024-01-16T01:49:55.491Z,4.95
2024-01-16T01:52:23.036Z,1.88
2024-01-16T01:54:52.822Z,1.70
2024-01-16T01:57:20.163Z,1.92
2024-01-16T01:59:47.724Z,3.05
2024-01-16T02:02:15.174Z,2.15
2024-01-16T02:04:44.701Z,1.38
2024-01-16T02:07:11.964Z,2.00
2024-01-16T02:09:39.668Z,2.30
2024-01-16T02:12:08.275Z,1.40
2024-01-16T02:14:36.259Z,1.52
2024-01-16T02:17:03.524Z,1.10
2024-01-16T02:19:31.079Z,2.80
2024-01-16T02:22:01.482Z,2.55
2024-01-16T02:24:29.050Z,3.35
2024-01-16T02:26:56.961Z,2.65
2024-01-16T02:29:24.515Z,1.42
2024-01-16T02:31:51.914Z,3.03
2024-01-16T02:34:19.639Z,2.15
2024-01-16T02:36:46.983Z,1.17
2024-01-16T02:39:14.478Z,1.35
2024-01-16T02:41:42.175Z,5.03
2024-01-16T02:44:09.758Z,2.40
2024-01-16T02:46:37.116Z,3.25
2024-01-16T02:49:04.559Z,1.85
2024-01-16T02:51:31.799Z,1.77
2024-01-16T02:53:59.268Z,1.70
2024-01-16T02:56:26.541Z,1.65
2024-01-16T02:58:54.073Z,2.33
2024-01-16T03:01:21.343Z,1.73
2024-01-16T03:03:48.966Z,1.48
2024-01-16T03:06:24.625Z,1.88
2024-01-16T03:08:53.078Z,1.95
2024-01-16T03:11:20.357Z,2.88
2024-01-16T03:13:47.778Z,4.07
2024-01-16T03:16:15.072Z,1.70
2024-01-16T03:18:42.624Z,1.30
2024-01-16T03:21:09.893Z,4.32
2024-01-16T03:23:37.453Z,0.82
2024-01-16T03:26:05.056Z,1.95
2024-01-16T03:28:32.627Z,2.45
2024-01-16T03:30:59.943Z,2.47
2024-01-16T03:33:27.629Z,3.40
2024-01-16T03:35:54.987Z,1.58
2024-01-16T03:38:22.615Z,1.50
2024-01-16T03:40:49.914Z,1.67
2024-01-16T03:43:17.380Z,3.05
2024-01-16T03:45:44.971Z,2.20
2024-01-16T03:48:12.653Z,1.83
2024-01-16T03:50:40.877Z,3.70
2024-01-16T03:53:08.706Z,2.53
2024-01-16T03:55:35.962Z,2.97
2024-01-16T03:58:03.653Z,3.25
2024-01-16T04:00:30.896Z,2.30
2024-01-16T04:02:58.685Z,3.85
2024-01-16T04:05:26.193Z,3.22
2024-01-16T04:07:53.782Z,3.75
2024-01-16T04:10:21.050Z,2.78
2024-01-16T04:12:48.531Z,1.35
2024-01-16T04:15:15.859Z,3.72
2024-01-16T04:17:43.391Z,2.78
2024-01-16T04:20:11.682Z,2.70
2024-01-16T04:22:39.209Z,1.75
2024-01-16T04:25:06.783Z,2.28
2024-01-16T04:27:34.582Z,1.98
2024-01-16T04:30:01.910Z,3.35
2024-01-16T04:32:29.730Z,1.80
2024-01-16T04:34:57.060Z,2.05
2024-01-16T04:37:25.198Z,2.17
2024-01-16T04:39:52.619Z,4.68
2024-01-16T04:42:20.426Z,2.45
2024-01-16T04:44:49.681Z,2.25
2024-01-16T04:47:17.296Z,2.95
2024-01-16T04:49:45.054Z,2.00
2024-01-16T04:52:12.580Z,1.92
2024-01-16T04:54:39.812Z,2.95
2024-01-16T04:57:07.243Z,3.65
2024-01-16T04:59:34.560Z,2.95
2024-01-16T05:02:02.231Z,1.55
2024-01-16T05:04:29.587Z,3.65
2024-01-16T05:06:57.065Z,1.58
2024-01-16T05:09:24.574Z,2.03
2024-01-16T05:11:52.080Z,2.03
2024-01-16T05:14:19.392Z,2.33
2024-01-16T05:16:46.940Z,2.72
2024-01-16T05:19:14.137Z,1.88
2024-01-16T05:21:42.469Z,3.63
2024-01-16T05:24:09.896Z,3.17
2024-01-16T05:26:37.399Z,2.63
2024-01-16T05:29:04.791Z,1.63
2024-01-16T05:31:32.254Z,2.47
2024-01-16T05:33:59.662Z,2.72
2024-01-16T05:36:28.207Z,5.07
2024-01-16T05:38:55.477Z,4.05
2024-01-16T05:41:23.234Z,4.97
2024-01-16T05:43:50.565Z,5.82
2024-01-16T05:46:18.016Z,3.53
2024-01-16T05:48:45.413Z,3.85
2024-01-16T05:51:12.952Z,3.33
2024-01-16T05:53:40.322Z,4.35
2024-01-16T05:56:08.992Z,3.05
2024-01-16T05:58:39.965Z,3.47
2024-01-16T06:01:07.609Z,3.10
2024-01-16T06:03:34.806Z,4.03
2024-01-16T06:06:02.542Z,2.85
2024-01-16T06:08:31.156Z,6.03
2024-01-16T06:10:58.708Z,4.55
2024-01-16T06:13:25.953Z,5.40
2024-01-16T06:15:53.412Z,4.07
2024-01-16T06:18:20.740Z,6.75
2024-01-16T06:20:48.352Z,4.90
2024-01-16T06:23:15.629Z,4.93
2024-01-16T06:25:43.092Z,4.72
2024-01-16T06:28:10.310Z,3.92
2024-01-16T06:30:37.954Z,3.90
2024-01-16T06:33:06.100Z,3.42
2024-01-16T06:35:33.748Z,5.68
2024-01-16T06:38:00.996Z,5.13
2024-01-16T06:40:28.424Z,4.43
2024-01-16T06:42:55.646Z,4.95
2024-01-16T06:45:23.148Z,6.65
2024-01-16T06:47:52.074Z,4.70
2024-01-16T06:50:20.722Z,6.00
2024-01-16T06:52:48.019Z,6.40
2024-01-16T06:55:15.637Z,5.78
2024-01-16T06:57:42.879Z,8.38
2024-01-16T07:00:10.908Z,4.88
2024-01-16T07:02:38.284Z,5.63
2024-01-16T07:05:06.173Z,11.25
2024-01-16T07:07:33.535Z,8.10
2024-01-16T07:10:00.964Z,5.85
2024-01-16T07:12:28.279Z,6.75
2024-01-16T07:14:55.775Z,8.90
2024-01-16T07:17:23.148Z,4.53
2024-01-16T07:19:50.846Z,11.45
2024-01-16T07:22:18.133Z,6.13
2024-01-16T07:24:45.610Z,9.15
2024-01-16T07:27:12.848Z,4.93
2024-01-16T07:29:40.433Z,6.85
2024-01-16T07:32:07.840Z,3.42
2024-01-16T07:34:35.446Z,8.60
2024-01-16T07:37:02.705Z,5.03
2024-01-16T07:39:30.450Z,5.53
2024-01-16T07:41:57.624Z,5.53
2024-01-16T07:44:26.168Z,6.82
2024-01-16T07:46:53.907Z,5.65
2024-01-16T07:49:21.414Z,6.05
2024-01-16T07:51:48.687Z,2.35
2024-01-16T07:54:16.152Z,5.68
2024-01-16T07:56:44.247Z,4.07
2024-01-16T07:59:11.858Z,4.10
2024-01-16T08:01:39.086Z,5.32
2024-01-16T08:04:06.688Z,3.17
2024-01-16T08:06:34.177Z,2.95
2024-01-16T08:09:01.965Z,4.85
2024-01-16T08:11:29.252Z,6.40
2024-01-16T08:13:57.073Z,2.97
2024-01-16T08:16:24.530Z,4.68
2024-01-16T08:18:52.101Z,4.65
2024-01-16T08:21:19.423Z,5.25
2024-01-16T08:23:47.113Z,4.65
2024-01-16T08:26:14.392Z,3.45
2024-01-16T08:28:41.835Z,8.40
2024-01-16T08:31:09.088Z,10.05
2024-01-16T08:33:43.244Z,5.80
2024-01-16T08:36:14.207Z,4.18
2024-01-16T08:38:42.191Z,3.95
2024-01-16T08:41:10.549Z,4.13
2024-01-16T08:43:38.143Z,6.90
2024-01-16T08:46:05.633Z,5.47
2024-01-16T08:48:33.373Z,4.50
2024-01-16T08:51:02.362Z,4.00
2024-01-16T08:53:29.935Z,6.45
2024-01-16T08:55:57.198Z,8.07
2024-01-16T08:58:24.816Z,12.57
2024-01-16T09:00:52.038Z,5.93
2024-01-16T09:03:19.608Z,6.97
2024-01-16T09:05:47.092Z,6.78
2024-01-16T09:08:14.912Z,7.07
2024-01-16T09:10:42.165Z,6.07
2024-01-16T09:13:09.881Z,6.35
2024-01-16T09:15:37.203Z,5.47
2024-01-16T09:18:05.081Z,19.63
2024-01-16T09:20:32.533Z,5.97
2024-01-16T09:23:00.202Z,7.00
2024-01-16T09:25:28.776Z,7.82
2024-01-16T09:27:56.558Z,4.50
2024-01-16T09:30:24.075Z,8.07
2024-01-16T09:32:51.752Z,5.05
2024-01-16T09:35:19.280Z,7.35
2024-01-16T09:37:46.857Z,5.75
2024-01-16T09:40:14.906Z,2.75
2024-01-16T09:42:42.530Z,5.40
2024-01-16T09:45:10.566Z,5.95
2024-01-16T09:47:39.213Z,5.20
2024-01-16T09:50:07.188Z,5.45
2024-01-16T09:52:35.618Z,6.78
2024-01-16T09:55:02.949Z,5.40
2024-01-16T09:57:32.867Z,4.78
2024-01-16T10:00:02.111Z,3.20
2024-01-16T10:02:34.982Z,5.53
2024-01-16T10:05:02.471Z,4.53
2024-01-16T10:07:32.750Z,3.17
2024-01-16T10:10:00.289Z,4.20
2024-01-16T10:12:28.824Z,4.25
2024-01-16T10:14:57.042Z,8.80
2024-01-16T10:17:40.876Z,3.97
2024-01-16T10:20:18.366Z,7.80
2024-01-16T10:22:55.554Z,4.07
2024-01-16T10:25:23.770Z,7.32
2024-01-16T10:28:04.720Z,4.22
2024-01-16T10:30:32.104Z,6.15
2024-01-16T10:33:17.946Z,5.18
2024-01-16T10:35:45.572Z,3.25
2024-01-16T10:38:22.452Z,5.03
2024-01-16T10:41:05.013Z,8.15
2024-01-16T10:43:32.553Z,5.22
2024-01-16T10:46:18.695Z,5.65
2024-01-16T10:49:05.360Z,7.97
2024-01-16T10:51:33.748Z,4.90
2024-01-16T10:54:10.016Z,4.00
2024-01-16T10:56:37.488Z,4.80
2024-01-16T10:59:21.137Z,4.68
2024-01-16T11:01:52.864Z,8.75
2024-01-16T11:04:22.126Z,5.38
2024-01-16T11:06:52.453Z,6.38
2024-01-16T11:09:21.327Z,6.90
2024-01-16T11:11:50.352Z,7.30
2024-01-16T11:14:18.762Z,7.07
2024-01-16T11:16:49.022Z,4.78
2024-01-16T11:19:31.500Z,5.05
2024-01-16T11:22:06.223Z,4.43
2024-01-16T11:24:33.828Z,3.15
2024-01-16T11:27:01.228Z,4.18
2024-01-16T11:29:29.114Z,4.63
2024-01-16T11:32:12.772Z,7.30
2024-01-16T11:34:45.371Z,3.70
2024-01-16T11:37:16.402Z,4.97
2024-01-16T11:39:44.025Z,5.30
2024-01-16T11:42:11.780Z,4.47
2024-01-16T11:44:49.220Z,6.97
2024-01-16T11:47:24.788Z,5.35
2024-01-16T11:50:13.700Z,6.47
2024-01-16T11:52:47.341Z,6.50
2024-01-16T11:56:03.371Z,6.47
2024-01-16T11:58:42.193Z,4.00
2024-01-16T12:01:13.179Z,5.57
2024-01-16T12:03:40.842Z,8.43
2024-01-16T12:06:10.485Z,5.95
2024-01-16T12:08:38.540Z,4.03
2024-01-16T12:11:06.383Z,7.53
2024-01-16T12:13:34.393Z,6.40
2024-01-16T12:16:05.970Z,7.35
2024-01-16T12:18:40.870Z,5.85
2024-01-16T12:21:13.273Z,3.75
2024-01-16T12:23:46.375Z,5.88
2024-01-16T12:26:26.771Z,4.55
2024-01-16T12:28:58.600Z,5.28
2024-01-16T12:31:28.901Z,3.33
2024-01-16T12:34:11.966Z,4.65
2024-01-16T12:36:39.938Z,5.22
2024-01-16T12:39:08.149Z,4.97
2024-01-16T12:41:44.375Z,7.20
2024-01-16T12:44:16.432Z,6.97
2024-01-16T12:46:56.152Z,5.28
2024-01-16T12:49:24.499Z,4.45
2024-01-16T12:51:52.298Z,3.90
2024-01-16T12:54:23.533Z,4.90
2024-01-16T12:57:00.227Z,4.45
2024-01-16T12:59:31.171Z,4.43
2024-01-16T13:01:59.719Z,5.97
2024-01-16T13:04:27.113Z,7.55
2024-01-16T13:07:04.381Z,5.70
2024-01-16T13:09:32.995Z,7.80
2024-01-16T13:12:02.222Z,3.58
2024-01-16T13:14:29.543Z,6.85
2024-01-16T13:16:57.425Z,6.53
2024-01-16T13:19:26.383Z,4.13
2024-01-16T13:21:55.128Z,4.20
2024-01-16T13:24:25.198Z,15.70
2024-01-16T13:26:53.619Z,3.45
2024-01-16T13:29:21.270Z,6.95
2024-01-16T13:31:49.571Z,4.80
2024-01-16T13:34:19.502Z,5.55
2024-01-16T13:37:06.602Z,4.55
2024-01-16T13:39:39.948Z,3.85
2024-01-16T13:42:08.296Z,6.18
2024-01-16T13:44:35.820Z,6.78
2024-01-16T13:47:08.809Z,7.25
2024-01-16T13:49:39.525Z,14.77
2024-01-16T13:52:07.322Z,12.40
2024-01-16T13:54:38.183Z,9.80
2024-01-16T13:57:08.255Z,8.65
2024-01-16T13:59:37.503Z,7.22
2024-01-16T14:02:09.544Z,8.15
2024-01-16T14:04:37.156Z,7.13
2024-01-16T14:07:12.399Z,8.35
2024-01-16T14:09:43.345Z,6.28
2024-01-16T14:12:12.552Z,6.60
2024-01-16T14:14:42.640Z,9.70
2024-01-16T14:17:11.060Z,12.57
2024-01-16T14:19:39.790Z,21.13
2024-01-16T14:22:07.594Z,8.10
2024-01-16T14:24:35.308Z,8.52
2024-01-16T14:27:02.866Z,8.05
2024-01-16T14:29:30.626Z,6.95
2024-01-16T14:31:59.877Z,5.50
2024-01-16T14:34:27.815Z,6.75
2024-01-16T14:36:55.973Z,7.38
2024-01-16T14:39:26.979Z,6.15
2024-01-16T14:41:55.840Z,7.72
2024-01-16T14:44:23.473Z,20.08
2024-01-16T14:46:53.465Z,25.48
2024-01-16T14:49:22.790Z,35.10
2024-01-16T14:51:51.791Z,83.78
2024-01-16T14:54:19.770Z,7.43
2024-01-16T14:56:47.837Z,9.95
2024-01-16T14:59:16.393Z,11.93
2024-01-16T15:01:45.741Z,9.95
2024-01-16T15:04:13.589Z,8.55
2024-01-16T15:06:42.226Z,15.02
2024-01-16T15:09:14.002Z,9.68
2024-01-16T15:11:46.095Z,13.25
2024-01-16T15:14:15.217Z,10.93
2024-01-16T15:16:44.077Z,18.23
2024-01-16T15:19:11.968Z,34.25
2024-01-16T15:21:40.946Z,20.30
2024-01-16T15:24:08.190Z,21.33
2024-01-16T15:26:36.396Z,10.75
2024-01-16T15:29:03.659Z,13.95
2024-01-16T15:31:31.221Z,13.57
2024-01-16T15:33:58.533Z,20.33
2024-01-16T15:36:26.952Z,17.77
2024-01-16T15:38:54.517Z,12.18
2024-01-16T15:41:22.212Z,11.55
2024-01-16T15:43:49.492Z,8.02
2024-01-16T15:46:17.840Z,11.55
2024-01-16T15:48:45.877Z,14.18
2024-01-16T15:51:13.623Z,17.38
2024-01-16T15:53:41.028Z,24.05
2024-01-16T15:56:08.645Z,22.08
2024-01-16T15:58:36.272Z,31.52
2024-01-16T16:01:03.823Z,30.20
2024-01-16T16:03:31.824Z,17.17
2024-01-16T16:05:59.547Z,10.50
2024-01-16T16:08:27.474Z,32.67
2024-01-16T16:10:54.857Z,23.63
2024-01-16T16:13:22.311Z,9.23
2024-01-16T16:15:49.675Z,10.65
2024-01-16T16:18:17.350Z,25.65
2024-01-16T16:20:44.745Z,22.77
2024-01-16T16:23:12.237Z,11.15
2024-01-16T16:25:46.628Z,12.45
2024-01-16T16:28:15.103Z,13.27
2024-01-16T16:30:42.461Z,13.13
2024-01-16T16:33:10.592Z,11.38
2024-01-16T16:35:38.124Z,16.13
2024-01-16T16:38:06.414Z,15.55
2024-01-16T16:40:33.740Z,22.13
2024-01-16T16:43:01.383Z,79.07
2024-01-16T16:45:28.691Z,39.90
2024-01-16T16:47:56.319Z,31.83
2024-01-16T16:50:24.898Z,65.15
2024-01-16T16:52:52.569Z,17.25
2024-01-16T16:55:19.836Z,103.93
2024-01-16T16:57:48.059Z,23.23
2024-01-16T17:00:15.681Z,37.35
2024-01-16T17:02:43.232Z,18.58
2024-01-16T17:05:10.825Z,22.73
2024-01-16T17:07:38.544Z,23.63
2024-01-16T17:10:06.202Z,17.95
2024-01-16T17:12:33.649Z,41.38
2024-01-16T17:15:01.216Z,37.30
2024-01-16T17:17:31.102Z,41.10
2024-01-16T17:19:58.336Z,68.65
2024-01-16T17:22:25.982Z,57.25
2024-01-16T17:24:53.228Z,65.65
2024-01-16T17:27:20.815Z,49.08
2024-01-16T17:29:48.080Z,66.80
2024-01-16T17:32:15.697Z,74.10
2024-01-16T17:34:43.181Z,100.97
2024-01-16T17:37:10.723Z,105.00
2024-01-16T17:39:38.003Z,100.10
2024-01-16T17:42:06.573Z,159.55
2024-01-16T17:44:39.013Z,145.15
2024-01-16T17:47:06.763Z,84.78
2024-01-16T17:49:34.735Z,114.65
2024-01-16T17:52:04.907Z,77.35
2024-01-16T17:54:32.218Z,79.50
2024-01-16T17:56:59.997Z,158.73
2024-01-16T17:59:34.042Z,128.98
2024-01-16T18:02:01.933Z,125.40
2024-01-16T18:04:29.558Z,172.20
2024-01-16T18:06:57.051Z,136.60
2024-01-16T18:09:30.018Z,126.65
2024-01-16T18:11:59.205Z,130.00
2024-01-16T18:14:28.392Z,111.93
2024-01-16T18:16:55.905Z,140.98
2024-01-16T18:19:25.845Z,97.57
2024-01-16T18:21:57.862Z,163.02
2024-01-16T18:24:27.613Z,150.82
2024-01-16T18:26:56.635Z,99.18
2024-01-16T18:29:24.275Z,65.45
2024-01-16T18:31:51.959Z,82.95
2024-01-16T18:34:22.192Z,82.85
2024-01-16T18:36:50.938Z,89.80
2024-01-16T18:39:20.808Z,61.10
2024-01-16T18:41:49.965Z,72.13
2024-01-16T18:44:17.984Z,47.80
2024-01-16T18:46:45.439Z,50.03
2024-01-16T18:49:17.168Z,52.92
2024-01-16T18:51:45.163Z,44.38
2024-01-16T18:54:12.655Z,118.13
2024-01-16T18:56:40.382Z,213.45
2024-01-16T18:59:07.890Z,517.17
2024-01-16T19:01:36.161Z,132.38
2024-01-16T19:04:05.029Z,218.55
2024-01-16T19:06:33.129Z,92.40
2024-01-16T19:09:00.650Z,89.10
2024-01-16T19:11:28.474Z,94.03
2024-01-16T19:13:55.737Z,69.32
2024-01-16T19:16:24.188Z,59.42
2024-01-16T19:18:51.897Z,70.07
2024-01-16T19:21:19.784Z,56.85
2024-01-16T19:23:47.120Z,50.13
2024-01-16T19:26:15.485Z,65.05
2024-01-16T19:28:42.671Z,58.42
2024-01-16T19:31:11.363Z,69.28
2024-01-16T19:33:39.316Z,72.30
2024-01-16T19:36:08.067Z,78.72
2024-01-16T19:38:36.804Z,57.42
2024-01-16T19:41:04.589Z,52.92
2024-01-16T19:43:32.461Z,58.03
2024-01-16T19:46:01.153Z,52.38
2024-01-16T19:48:28.643Z,52.03
2024-01-16T19:50:56.710Z,54.28
2024-01-16T19:53:25.503Z,53.42
2024-01-16T19:55:56.377Z,42.80
2024-01-16T19:58:26.439Z,43.03
2024-01-16T20:00:53.957Z,42.75
2024-01-16T20:03:21.269Z,53.60
2024-01-16T20:05:48.997Z,49.42
2024-01-16T20:08:16.676Z,86.85
2024-01-16T20:10:44.320Z,64.90
2024-01-16T20:13:12.244Z,47.63
2024-01-16T20:15:39.868Z,49.67
2024-01-16T20:18:10.079Z,51.30
2024-01-16T20:20:37.824Z,63.85
2024-01-16T20:23:05.122Z,60.80
2024-01-16T20:25:32.649Z,55.25
2024-01-16T20:28:00.792Z,59.33
2024-01-16T20:30:28.444Z,54.63
2024-01-16T20:32:56.753Z,132.52
2024-01-16T20:35:25.026Z,126.88
2024-01-16T20:37:52.377Z,120.45
2024-01-16T20:40:20.923Z,67.72
2024-01-16T20:42:48.238Z,105.55
2024-01-16T20:45:15.919Z,105.68
2024-01-16T20:47:43.332Z,68.63
2024-01-16T20:50:12.292Z,95.53
2024-01-16T20:52:39.701Z,55.47
2024-01-16T20:55:08.777Z,87.57
2024-01-16T20:57:36.645Z,292.65
2024-01-16T21:00:10.916Z,168.10
2024-01-16T21:02:40.457Z,200.57
2024-01-16T21:05:08.895Z,108.60
2024-01-16T21:07:36.346Z,120.80
2024-01-16T21:10:05.400Z,96.40
2024-01-16T21:12:33.216Z,133.80
2024-01-16T21:15:01.161Z,200.23
2024-01-16T21:17:29.476Z,104.50
2024-01-16T21:19:58.048Z,76.95
2024-01-16T21:22:33.265Z,85.78
2024-01-16T21:25:06.304Z,80.35
2024-01-16T21:27:34.370Z,182.73
2024-01-16T21:30:02.794Z,75.03
2024-01-16T21:32:30.423Z,78.05
2024-01-16T21:34:58.005Z,68.38
2024-01-16T21:37:25.208Z,61.97
2024-01-16T21:39:52.794Z,70.28
2024-01-16T21:42:20.329Z,72.80
2024-01-16T21:44:49.539Z,83.07
2024-01-16T21:47:17.027Z,84.03
2024-01-16T21:49:48.549Z,76.70
2024-01-16T21:52:18.349Z,69.43
2024-01-16T21:54:45.889Z,70.53
2024-01-16T21:57:14.135Z,69.20
2024-01-16T21:59:41.604Z,58.35
2024-01-16T22:02:10.882Z,45.47
2024-01-16T22:04:38.780Z,35.75
2024-01-16T22:07:06.052Z,39.90
2024-01-16T22:09:33.950Z,37.95
2024-01-16T22:12:01.267Z,39.25
2024-01-16T22:14:28.858Z,35.80
2024-01-16T22:16:56.434Z,43.40
2024-01-16T22:19:24.371Z,47.00
2024-01-16T22:21:51.818Z,36.00
2024-01-16T22:24:19.384Z,47.03
2024-01-16T22:26:46.583Z,46.40
2024-01-16T22:29:14.114Z,50.88
2024-01-16T22:31:45.071Z,42.05
2024-01-16T22:34:12.698Z,42.78
2024-01-16T22:36:43.744Z,48.90
2024-01-16T22:39:17.029Z,50.10
2024-01-16T22:41:47.920Z,57.80
2024-01-16T22:44:16.471Z,75.10
2024-01-16T22:46:44.326Z,49.20
2024-01-16T22:49:12.884Z,72.95
2024-01-16T22:51:40.556Z,102.38
2024-01-16T22:54:08.331Z,75.50
2024-01-16T22:56:35.686Z,54.33
2024-01-16T22:59:04.526Z,38.63
2024-01-16T23:01:34.390Z,53.47
2024-01-16T23:04:02.989Z,51.65
2024-01-16T23:06:30.671Z,32.70
2024-01-16T23:09:00.955Z,73.95
2024-01-16T23:11:28.751Z,59.00
2024-01-16T23:13:56.300Z,55.17
2024-01-16T23:16:23.545Z,33.92
2024-01-16T23:18:51.420Z,43.83
2024-01-16T23:21:19.904Z,32.55
2024-01-16T23:24:05.752Z,35.13
2024-01-16T23:26:33.060Z,28.48
2024-01-16T23:29:00.652Z,36.58
2024-01-16T23:31:27.794Z,40.42
2024-01-16T23:33:55.418Z,41.05
2024-01-16T23:36:22.735Z,41.08
2024-01-16T23:38:50.793Z,43.92
2024-01-16T23:41:19.264Z,50.58
2024-01-16T23:43:46.748Z,55.45
2024-01-16T23:46:14.785Z,44.33
2024-01-16T23:48:45.378Z,46.63
2024-01-16T23:51:13.480Z,48.17
2024-01-16T23:53:41.333Z,42.30
2024-01-16T23:56:08.571Z,42.70
2024-01-16T23:58:35.996Z,42.78
